Overton's Hourly Summary for Monday, April 17, 2017
Hour Temp
(f)
RH
(%)
Solar Rad.
(MJ/m2)
Rainfall
(in)
Wind
(mph)
4/17/2017 12:00 AM 69 84 0 0 4.12
4/17/2017 1:00 AM 68 89 0 0 2.27
4/17/2017 2:00 AM 68 91 0 0 3.66
4/17/2017 3:00 AM 68 91 0 0 2.82
4/17/2017 4:00 AM 67 94 0 0 0.49
4/17/2017 5:00 AM 66 96 0 0 0.3
4/17/2017 6:00 AM 66 97 0 0 0.48
4/17/2017 7:00 AM 66 96 0 0 0.48
4/17/2017 8:00 AM 67 94 0.14 0 0.46
4/17/2017 9:00 AM 69 88 0.67 0 3.8
4/17/2017 10:00 AM 71 79 1.09 0 5.11
4/17/2017 11:00 AM 75 76 1.88 0 5.2
4/17/2017 12:00 PM 75 67 1.52 0 3.67
4/17/2017 1:00 PM 77 68 1.89 0 3.54
4/17/2017 2:00 PM 77 67 1.77 0 6.13
4/17/2017 3:00 PM 72 91 0.72 0.04 13.98
4/17/2017 4:00 PM 71 75 1.43 0.02 6.36
4/17/2017 5:00 PM 75 69 1.85 0 6.9
4/17/2017 6:00 PM 75 71 1.21 0 5.44
4/17/2017 7:00 PM 73 78 0.44 0 2.79
4/17/2017 8:00 PM 70 88 0.07 0 0.22
4/17/2017 9:00 PM 68 92 0 0 1.42
4/17/2017 10:00 PM 67 94 0 0 0.2
4/17/2017 11:00 PM 66 93 0 0 0.69
Data Summary 70 84 14.68 0.06 3.36